createdAt,value
2019-04-06T00:02:04.775Z,31.73
2019-04-06T00:04:36.154Z,28.17
2019-04-06T00:07:09.295Z,28.10
2019-04-06T00:09:40.674Z,27.35
2019-04-06T00:12:12.110Z,26.17
2019-04-06T00:14:43.527Z,24.43
2019-04-06T00:17:14.905Z,27.93
2019-04-06T00:19:46.203Z,28.90
2019-04-06T00:22:17.514Z,28.05
2019-04-06T00:24:48.856Z,26.17
2019-04-06T00:27:20.175Z,28.17
2019-04-06T00:29:51.470Z,28.92
2019-04-06T00:32:22.545Z,28.23
2019-04-06T00:34:53.961Z,25.57
2019-04-06T00:37:31.417Z,28.05
2019-04-06T00:40:02.700Z,27.22
2019-04-06T00:42:35.132Z,27.50
2019-04-06T00:45:09.351Z,26.00
2019-04-06T00:47:40.770Z,26.60
2019-04-06T00:50:12.373Z,24.02
2019-04-06T00:52:43.603Z,26.52
2019-04-06T00:55:23.990Z,28.27
2019-04-06T00:57:55.274Z,29.82
2019-04-06T01:00:27.638Z,28.52
2019-04-06T01:02:58.862Z,28.45
2019-04-06T01:05:36.196Z,27.62
2019-04-06T01:08:08.505Z,30.37
2019-04-06T01:10:39.934Z,30.30
2019-04-06T01:13:11.236Z,31.70
2019-04-06T01:15:42.821Z,30.90
2019-04-06T01:18:14.117Z,29.02
2019-04-06T01:20:46.206Z,32.88
2019-04-06T01:23:17.559Z,34.10
2019-04-06T01:25:48.856Z,35.08
2019-04-06T01:28:21.119Z,35.17
2019-04-06T01:30:52.514Z,38.33
2019-04-06T01:33:23.885Z,33.50
2019-04-06T01:35:55.175Z,33.60
2019-04-06T01:38:26.479Z,36.98
2019-04-06T01:41:07.518Z,34.50
2019-04-06T01:43:38.862Z,35.25
2019-04-06T01:46:10.280Z,36.68
2019-04-06T01:48:46.004Z,35.50
2019-04-06T01:51:17.500Z,34.38
2019-04-06T01:53:48.809Z,38.25
2019-04-06T01:56:21.222Z,34.47
2019-04-06T01:58:52.540Z,30.90
2019-04-06T02:01:26.595Z,30.08
2019-04-06T02:03:57.826Z,32.90
2019-04-06T02:06:29.197Z,29.98
2019-04-06T02:09:00.508Z,32.37
2019-04-06T02:11:33.513Z,32.98
2019-04-06T02:14:06.587Z,32.50
2019-04-06T02:16:37.994Z,33.35
2019-04-06T02:19:09.299Z,34.18
2019-04-06T02:21:40.661Z,33.05
2019-04-06T02:24:11.903Z,35.35
2019-04-06T02:26:43.333Z,35.63
2019-04-06T02:29:14.849Z,30.60
2019-04-06T02:32:03.859Z,29.80
2019-04-06T02:34:42.410Z,34.45
2019-04-06T02:37:13.516Z,37.40
2019-04-06T02:39:50.649Z,39.35
2019-04-06T02:42:26.586Z,33.88
2019-04-06T02:44:57.889Z,36.45
2019-04-06T02:47:32.059Z,38.80
2019-04-06T02:50:04.344Z,36.30
2019-04-06T02:52:35.808Z,37.83
2019-04-06T02:55:07.274Z,37.00
2019-04-06T02:57:38.828Z,37.00
2019-04-06T03:00:11.107Z,37.42
2019-04-06T03:02:44.209Z,38.00
2019-04-06T03:05:16.580Z,34.60
2019-04-06T03:07:47.880Z,34.20
2019-04-06T03:10:21.074Z,33.25
2019-04-06T03:12:52.506Z,33.33
2019-04-06T03:15:23.865Z,34.30
2019-04-06T03:17:55.209Z,36.60
2019-04-06T03:20:26.507Z,34.78
2019-04-06T03:22:57.824Z,35.68
2019-04-06T03:25:32.617Z,37.08
2019-04-06T03:28:06.248Z,36.85
2019-04-06T03:30:44.488Z,37.38
2019-04-06T03:33:15.956Z,35.17
2019-04-06T03:35:49.392Z,37.88
2019-04-06T03:38:20.320Z,34.98
2019-04-06T03:40:52.811Z,37.03
2019-04-06T03:43:24.085Z,34.80
2019-04-06T03:45:55.317Z,35.10
2019-04-06T03:48:26.734Z,32.75
2019-04-06T03:51:01.282Z,31.52
2019-04-06T03:53:34.749Z,34.10
2019-04-06T03:56:06.144Z,32.23
2019-04-06T03:58:37.602Z,34.90
2019-04-06T04:01:08.957Z,33.42
2019-04-06T04:03:40.469Z,32.42
2019-04-06T04:06:11.775Z,32.60
2019-04-06T04:08:43.085Z,33.42
2019-04-06T04:11:14.358Z,31.77
2019-04-06T04:13:45.862Z,31.68
2019-04-06T04:16:18.975Z,32.13
2019-04-06T04:18:50.369Z,32.53
2019-04-06T04:21:21.707Z,33.40
2019-04-06T04:23:53.296Z,31.33
2019-04-06T04:26:24.593Z,31.82
2019-04-06T04:28:56.018Z,33.28
2019-04-06T04:31:27.402Z,34.88
2019-04-06T04:33:59.769Z,33.08
2019-04-06T04:36:31.129Z,33.30
2019-04-06T04:39:08.130Z,33.08
2019-04-06T04:41:46.437Z,30.50
2019-04-06T04:44:19.832Z,34.30
2019-04-06T04:46:52.201Z,34.40
2019-04-06T04:49:23.647Z,32.78
2019-04-06T04:51:55.052Z,31.50
2019-04-06T04:54:26.383Z,32.23
2019-04-06T04:56:57.742Z,32.67
2019-04-06T04:59:29.039Z,32.00
2019-04-06T05:02:07.528Z,34.13
2019-04-06T05:04:39.035Z,33.50
2019-04-06T05:07:13.863Z,28.73
2019-04-06T05:09:45.346Z,32.53
2019-04-06T05:12:16.881Z,32.33
2019-04-06T05:15:22.803Z,34.53
2019-04-06T05:17:54.110Z,34.45
2019-04-06T05:20:25.416Z,32.80
2019-04-06T05:22:56.910Z,32.40
2019-04-06T05:25:28.374Z,32.15
2019-04-06T05:27:59.677Z,29.92
2019-04-06T05:30:31.109Z,28.75
2019-04-06T05:33:02.488Z,28.15
2019-04-06T05:35:34.085Z,26.17
2019-04-06T05:38:15.416Z,26.30
2019-04-06T05:40:46.768Z,25.67
2019-04-06T05:43:18.334Z,25.30
2019-04-06T05:45:49.657Z,26.33
2019-04-06T05:48:20.961Z,25.17
2019-04-06T05:50:52.324Z,25.03
2019-04-06T05:53:23.607Z,26.40
2019-04-06T05:55:54.962Z,23.23
2019-04-06T05:58:26.280Z,26.03
2019-04-06T06:01:04.461Z,24.50
2019-04-06T06:03:35.728Z,23.30
2019-04-06T06:06:07.255Z,23.85
2019-04-06T06:08:38.620Z,24.87
2019-04-06T06:11:09.961Z,23.20
2019-04-06T06:13:48.047Z,22.20
2019-04-06T06:16:19.497Z,26.40
2019-04-06T06:18:52.596Z,23.42
2019-04-06T06:21:24.115Z,21.12
2019-04-06T06:23:55.342Z,22.03
2019-04-06T06:26:26.823Z,20.57
2019-04-06T06:28:59.158Z,19.87
2019-04-06T06:31:30.612Z,20.80
2019-04-06T06:34:02.697Z,20.85
2019-04-06T06:36:34.307Z,20.62
2019-04-06T06:39:08.373Z,20.75
2019-04-06T06:41:39.768Z,17.25
2019-04-06T06:44:11.297Z,17.73
2019-04-06T06:46:42.644Z,18.30
2019-04-06T06:49:13.867Z,19.35
2019-04-06T06:51:45.144Z,19.62
2019-04-06T06:54:16.581Z,19.30
2019-04-06T06:56:48.000Z,16.90
2019-04-06T06:59:19.309Z,17.75
2019-04-06T07:01:50.577Z,19.80
2019-04-06T07:04:21.812Z,19.25
2019-04-06T07:06:53.171Z,19.20
2019-04-06T07:09:24.481Z,19.10
2019-04-06T07:11:56.138Z,20.20
2019-04-06T07:14:27.399Z,18.45
2019-04-06T07:16:58.852Z,19.98
2019-04-06T07:19:31.537Z,17.87
2019-04-06T07:22:02.885Z,20.48
2019-04-06T07:24:34.228Z,20.50
2019-04-06T07:27:06.757Z,18.98
2019-04-06T07:29:38.169Z,18.87
2019-04-06T07:32:15.348Z,20.27
2019-04-06T07:34:46.950Z,20.70
2019-04-06T07:37:18.229Z,20.40
2019-04-06T07:39:49.526Z,22.13
2019-04-06T07:42:27.096Z,21.87
2019-04-06T07:45:04.361Z,22.42
2019-04-06T07:47:36.035Z,22.65
2019-04-06T07:50:10.500Z,21.17
2019-04-06T07:52:46.429Z,22.07
2019-04-06T07:55:17.770Z,23.32
2019-04-06T07:57:49.152Z,21.80
2019-04-06T08:00:20.832Z,23.92
2019-04-06T08:02:55.043Z,22.70
2019-04-06T08:05:26.605Z,23.38
2019-04-06T08:07:58.245Z,24.30
2019-04-06T08:10:29.741Z,25.32
2019-04-06T08:13:02.256Z,24.98
2019-04-06T08:15:35.760Z,24.32
2019-04-06T08:18:08.364Z,24.87
2019-04-06T08:20:40.695Z,23.98
2019-04-06T08:23:12.029Z,25.02
2019-04-06T08:25:43.472Z,25.35
2019-04-06T08:28:14.748Z,25.43
2019-04-06T08:30:52.052Z,24.18
2019-04-06T08:33:25.546Z,25.60
2019-04-06T08:35:57.157Z,26.10
2019-04-06T08:38:30.473Z,25.97
2019-04-06T08:41:05.343Z,24.70
2019-04-06T08:43:36.691Z,27.50
2019-04-06T08:46:07.994Z,27.93
2019-04-06T08:48:39.279Z,27.80
2019-04-06T08:51:10.578Z,25.25
2019-04-06T08:53:42.030Z,25.40
2019-04-06T08:56:14.980Z,23.90
2019-04-06T08:58:46.468Z,23.75
2019-04-06T09:01:17.838Z,25.88
2019-04-06T09:03:49.115Z,26.12
2019-04-06T09:06:20.355Z,27.73
2019-04-06T09:08:53.083Z,26.48
2019-04-06T09:11:24.410Z,26.55
2019-04-06T09:13:55.934Z,23.25
2019-04-06T09:16:27.384Z,24.70
2019-04-06T09:18:58.864Z,23.47
2019-04-06T09:21:31.686Z,24.00
2019-04-06T09:24:03.151Z,25.15
2019-04-06T09:26:34.547Z,24.07
2019-04-06T09:29:06.264Z,25.05
2019-04-06T09:31:37.866Z,24.27
2019-04-06T09:34:09.485Z,24.82
2019-04-06T09:36:42.611Z,28.20
2019-04-06T09:39:15.688Z,26.00
2019-04-06T09:41:46.977Z,24.18
2019-04-06T09:44:25.729Z,24.07
2019-04-06T09:47:01.525Z,25.08
2019-04-06T09:49:34.482Z,26.77
2019-04-06T09:52:24.619Z,25.92
2019-04-06T09:54:57.554Z,25.37
2019-04-06T09:57:31.514Z,27.13
2019-04-06T10:00:07.258Z,25.95
2019-04-06T10:02:55.989Z,27.15
2019-04-06T10:05:31.600Z,25.77
2019-04-06T10:08:17.156Z,25.77
2019-04-06T10:10:59.196Z,24.27
2019-04-06T10:13:39.337Z,25.70
2019-04-06T10:16:25.383Z,26.10
2019-04-06T10:19:08.752Z,27.55
2019-04-06T10:21:53.085Z,26.05
2019-04-06T10:24:42.049Z,26.33
2019-04-06T10:27:25.389Z,26.35
2019-04-06T10:30:14.706Z,27.48
2019-04-06T10:32:47.670Z,25.80
2019-04-06T10:35:27.369Z,26.80
2019-04-06T10:38:05.999Z,27.87
2019-04-06T10:40:52.135Z,28.60
2019-04-06T10:43:28.173Z,28.47
2019-04-06T10:46:18.079Z,28.45
2019-04-06T10:48:51.000Z,28.20
2019-04-06T10:51:41.340Z,28.65
2019-04-06T10:54:16.275Z,27.37
2019-04-06T10:56:53.431Z,28.00
2019-04-06T10:59:39.207Z,27.17
2019-04-06T11:02:29.375Z,27.37
2019-04-06T11:05:02.338Z,27.07
2019-04-06T11:07:38.260Z,25.72
2019-04-06T11:10:11.398Z,25.65
2019-04-06T11:12:44.524Z,26.00
2019-04-06T11:15:23.343Z,26.17
2019-04-06T11:18:02.473Z,25.43
2019-04-06T11:20:37.499Z,25.55
2019-04-06T11:23:23.900Z,26.12
2019-04-06T11:26:09.972Z,25.57
2019-04-06T11:28:46.526Z,25.77
2019-04-06T11:31:19.697Z,26.20
2019-04-06T11:34:09.980Z,24.98
2019-04-06T11:36:59.117Z,26.00
2019-04-06T11:39:30.204Z,26.55
2019-04-06T11:42:03.160Z,26.48
2019-04-06T11:44:38.184Z,25.90
2019-04-06T11:47:27.568Z,25.23
2019-04-06T11:50:00.593Z,26.60
2019-04-06T11:52:33.703Z,25.92
2019-04-06T11:55:08.291Z,26.40
2019-04-06T11:58:06.243Z,25.75
2019-04-06T12:00:42.037Z,25.55
2019-04-06T12:03:15.079Z,24.80
2019-04-06T12:05:53.946Z,24.45
2019-04-06T12:08:25.625Z,24.98
2019-04-06T12:11:11.559Z,23.83
2019-04-06T12:13:56.512Z,24.43
2019-04-06T12:16:35.022Z,23.45
2019-04-06T12:19:10.797Z,24.35
2019-04-06T12:21:51.138Z,25.52
2019-04-06T12:24:35.884Z,24.63
2019-04-06T12:27:20.709Z,24.23
2019-04-06T12:29:55.166Z,25.25
2019-04-06T12:32:38.923Z,24.82
2019-04-06T12:35:25.305Z,23.45
2019-04-06T12:38:00.761Z,23.98
2019-04-06T12:40:41.897Z,23.02
2019-04-06T12:43:22.146Z,19.82
2019-04-06T12:46:07.994Z,17.82
2019-04-06T12:48:56.814Z,17.32
2019-04-06T12:51:33.828Z,18.73
2019-04-06T12:54:24.075Z,18.23
2019-04-06T12:57:06.361Z,18.32
2019-04-06T12:59:51.280Z,13.78
2019-04-06T13:02:30.443Z,12.28
2019-04-06T13:05:06.315Z,10.08
2019-04-06T13:07:55.469Z,10.32
2019-04-06T13:10:26.761Z,11.40
2019-04-06T13:13:00.043Z,11.05
2019-04-06T13:15:36.568Z,10.43
2019-04-06T13:18:10.045Z,10.90
2019-04-06T13:21:01.281Z,12.80
2019-04-06T13:23:34.328Z,13.00
2019-04-06T13:26:19.474Z,13.18
2019-04-06T13:29:01.666Z,14.68
2019-04-06T13:31:35.927Z,14.55
2019-04-06T13:34:22.095Z,14.45
2019-04-06T13:36:56.267Z,13.58
2019-04-06T13:39:37.785Z,14.85
2019-04-06T13:42:27.119Z,14.98
2019-04-06T13:45:05.839Z,14.78
2019-04-06T13:47:36.982Z,15.32
2019-04-06T13:50:26.989Z,15.65
2019-04-06T13:53:15.930Z,16.48
2019-04-06T13:55:48.969Z,17.45
2019-04-06T13:58:27.967Z,19.40
2019-04-06T14:01:19.638Z,17.05
2019-04-06T14:03:55.176Z,17.17
2019-04-06T14:06:40.271Z,16.23
2019-04-06T14:09:14.949Z,17.55
2019-04-06T14:12:05.239Z,21.37
2019-04-06T14:14:38.217Z,17.50
2019-04-06T14:17:32.664Z,17.82
2019-04-06T14:20:19.345Z,17.37
2019-04-06T14:22:52.531Z,18.30
2019-04-06T14:25:29.624Z,19.60
2019-04-06T14:28:02.711Z,18.90
2019-04-06T14:30:40.089Z,18.45
2019-04-06T14:33:16.674Z,18.10
2019-04-06T14:35:52.320Z,18.37
2019-04-06T14:38:27.665Z,18.15
2019-04-06T14:41:16.419Z,17.15
2019-04-06T14:43:48.777Z,17.32
2019-04-06T14:46:22.076Z,17.30
2019-04-06T14:49:09.492Z,18.42
2019-04-06T14:51:51.533Z,18.15
2019-04-06T14:54:27.265Z,18.05
2019-04-06T14:57:03.117Z,18.77
2019-04-06T14:59:52.326Z,18.30
2019-04-06T15:02:40.763Z,18.12
2019-04-06T15:05:27.478Z,17.07
2019-04-06T15:08:01.486Z,18.15
2019-04-06T15:10:49.684Z,18.15
2019-04-06T15:13:28.668Z,18.45
2019-04-06T15:16:09.009Z,17.15
2019-04-06T15:19:01.330Z,17.15
2019-04-06T15:21:40.699Z,18.75
2019-04-06T15:24:16.702Z,18.17
2019-04-06T15:26:53.269Z,18.50
2019-04-06T15:29:30.742Z,19.20
2019-04-06T15:32:08.852Z,17.67
2019-04-06T15:34:59.084Z,18.30
2019-04-06T15:37:34.414Z,17.48
2019-04-06T15:40:14.233Z,16.85
2019-04-06T15:42:55.177Z,17.87
2019-04-06T15:45:26.994Z,17.25
2019-04-06T15:48:15.372Z,17.62
2019-04-06T15:50:54.626Z,18.02
2019-04-06T15:53:26.391Z,18.52
2019-04-06T15:56:05.695Z,18.90
2019-04-06T15:58:38.861Z,17.90
2019-04-06T16:01:31.881Z,18.37
2019-04-06T16:04:03.085Z,19.30
2019-04-06T16:06:36.053Z,21.60
2019-04-06T16:09:15.767Z,21.85
2019-04-06T16:11:57.520Z,22.82
2019-04-06T16:14:33.207Z,21.17
2019-04-06T16:17:15.527Z,21.77
2019-04-06T16:20:07.004Z,21.25
2019-04-06T16:22:38.367Z,21.27
2019-04-06T16:25:14.752Z,20.23
2019-04-06T16:27:47.702Z,21.50
2019-04-06T16:30:34.875Z,20.62
2019-04-06T16:33:14.537Z,20.70
2019-04-06T16:35:52.740Z,19.95
2019-04-06T16:38:35.445Z,20.50
2019-04-06T16:41:32.038Z,20.77
2019-04-06T16:44:07.938Z,22.10
2019-04-06T16:46:49.690Z,20.48
2019-04-06T16:49:31.583Z,20.88
2019-04-06T16:52:06.576Z,20.97
2019-04-06T16:54:37.757Z,21.45
2019-04-06T16:57:10.725Z,21.40
2019-04-06T16:59:43.709Z,21.42
2019-04-06T17:02:24.251Z,19.67
2019-04-06T17:04:54.681Z,22.60
2019-04-06T17:07:27.845Z,21.55
2019-04-06T17:10:00.702Z,20.92
2019-04-06T17:12:42.307Z,20.35
2019-04-06T17:15:15.439Z,20.75
2019-04-06T17:17:58.746Z,20.60
2019-04-06T17:20:35.944Z,19.60
2019-04-06T17:23:17.497Z,19.45
2019-04-06T17:25:54.641Z,19.40
2019-04-06T17:28:30.333Z,19.60
2019-04-06T17:31:21.846Z,19.87
2019-04-06T17:34:16.556Z,20.25
2019-04-06T17:37:06.848Z,19.37
2019-04-06T17:39:50.273Z,19.45
2019-04-06T17:42:49.010Z,19.62
2019-04-06T17:45:31.375Z,20.40
2019-04-06T17:48:29.971Z,19.37
2019-04-06T17:51:10.293Z,20.00
2019-04-06T17:54:02.896Z,20.40
2019-04-06T17:56:45.597Z,20.32
2019-04-06T17:59:32.407Z,20.10
2019-04-06T18:02:22.468Z,19.95
2019-04-06T18:05:18.564Z,19.00
2019-04-06T18:08:00.187Z,19.40
2019-04-06T18:10:45.440Z,19.77
2019-04-06T18:13:26.656Z,20.37
2019-04-06T18:16:12.723Z,19.85
2019-04-06T18:18:54.805Z,20.25
2019-04-06T18:21:38.341Z,20.90
2019-04-06T18:24:25.944Z,20.82
2019-04-06T18:27:00.015Z,19.25
2019-04-06T18:29:40.467Z,20.02
2019-04-06T18:32:26.081Z,20.37
2019-04-06T18:35:10.815Z,19.70
2019-04-06T18:37:48.782Z,19.37
2019-04-06T18:43:25.703Z,18.95
2019-04-06T18:45:57.652Z,17.95
2019-04-06T18:48:29.316Z,17.75
2019-04-06T18:51:01.101Z,17.35
2019-04-06T18:53:37.624Z,17.77
2019-04-06T18:56:09.687Z,18.40
2019-04-06T18:58:44.146Z,17.45
2019-04-06T19:01:15.644Z,18.82
2019-04-06T19:03:47.291Z,18.35
2019-04-06T19:06:24.586Z,17.80
2019-04-06T19:08:57.593Z,19.07
2019-04-06T19:11:28.951Z,18.95
2019-04-06T19:14:00.338Z,18.57
2019-04-06T19:16:35.517Z,18.05
2019-04-06T19:19:06.866Z,18.82
2019-04-06T19:21:38.764Z,18.00
2019-04-06T19:24:10.329Z,18.17
2019-04-06T19:26:42.189Z,19.35
2019-04-06T19:29:13.723Z,18.27
2019-04-06T19:31:46.778Z,19.07
2019-04-06T19:34:18.251Z,18.32
2019-04-06T19:36:49.943Z,18.48
2019-04-06T19:39:21.693Z,18.60
2019-04-06T19:41:53.805Z,19.17
2019-04-06T19:44:27.160Z,18.20
2019-04-06T19:46:58.646Z,18.42
2019-04-06T19:49:33.213Z,18.70
2019-04-06T19:52:10.723Z,18.48
2019-04-06T19:54:42.368Z,18.48
2019-04-06T19:57:14.790Z,18.15
2019-04-06T19:59:46.192Z,17.85
2019-04-06T20:02:17.509Z,18.27
2019-04-06T20:04:48.810Z,18.60
2019-04-06T20:07:20.660Z,18.60
2019-04-06T20:09:52.189Z,16.52
2019-04-06T20:12:23.631Z,19.42
2019-04-06T20:14:54.911Z,21.50
2019-04-06T20:17:26.357Z,19.02
2019-04-06T20:19:57.746Z,19.67
2019-04-06T20:22:29.550Z,22.50
2019-04-06T20:25:02.026Z,23.25
2019-04-06T20:27:36.553Z,23.80
2019-04-06T20:30:11.281Z,22.65
2019-04-06T20:32:42.933Z,23.32
2019-04-06T20:35:16.787Z,26.50
2019-04-06T20:37:48.209Z,23.75
2019-04-06T20:40:21.035Z,23.80
2019-04-06T20:42:52.689Z,25.17
2019-04-06T20:45:24.656Z,25.55
2019-04-06T20:47:57.694Z,22.13
2019-04-06T20:50:29.032Z,20.68
2019-04-06T20:53:01.416Z,20.92
2019-04-06T20:55:33.161Z,20.92
2019-04-06T20:58:04.663Z,21.52
2019-04-06T21:00:36.269Z,20.37
2019-04-06T21:03:07.592Z,20.48
2019-04-06T21:05:39.471Z,19.67
2019-04-06T21:08:10.974Z,20.48
2019-04-06T21:10:42.870Z,18.23
2019-04-06T21:13:14.546Z,20.45
2019-04-06T21:15:46.042Z,19.40
2019-04-06T21:18:17.798Z,19.87
2019-04-06T21:20:49.542Z,20.65
2019-04-06T21:23:20.981Z,18.98
2019-04-06T21:25:52.795Z,19.50
2019-04-06T21:28:31.074Z,18.95
2019-04-06T21:31:02.452Z,18.82
2019-04-06T21:33:33.975Z,18.52
2019-04-06T21:36:06.240Z,18.75
2019-04-06T21:38:37.729Z,18.77
2019-04-06T21:41:09.022Z,19.55
2019-04-06T21:43:40.427Z,18.90
2019-04-06T21:46:12.210Z,18.23
2019-04-06T21:48:43.586Z,18.73
2019-04-06T21:51:14.867Z,17.92
2019-04-06T21:53:46.771Z,18.62
2019-04-06T21:56:19.155Z,19.17
2019-04-06T21:58:50.651Z,18.77
2019-04-06T22:01:23.038Z,18.57
2019-04-06T22:03:55.655Z,19.48
2019-04-06T22:06:27.068Z,18.40
2019-04-06T22:08:58.531Z,18.55
2019-04-06T22:11:29.952Z,18.23
2019-04-06T22:14:01.866Z,18.57
2019-04-06T22:16:33.655Z,18.35
2019-04-06T22:19:07.932Z,18.12
2019-04-06T22:21:39.523Z,19.67
2019-04-06T22:24:11.453Z,18.70
2019-04-06T22:26:42.828Z,17.48
2019-04-06T22:29:14.260Z,17.87
2019-04-06T22:31:45.788Z,17.95
2019-04-06T22:34:18.282Z,17.65
2019-04-06T22:36:49.669Z,18.45
2019-04-06T22:39:21.531Z,19.05
2019-04-06T22:41:52.878Z,18.82
2019-04-06T22:44:24.183Z,19.23
2019-04-06T22:46:55.562Z,18.20
2019-04-06T22:49:27.211Z,17.17
2019-04-06T22:51:59.402Z,17.37
2019-04-06T22:54:30.916Z,19.62
2019-04-06T22:57:02.752Z,19.05
2019-04-06T22:59:34.651Z,19.42
2019-04-06T23:02:06.441Z,19.42
2019-04-06T23:04:51.191Z,19.02
2019-04-06T23:07:23.627Z,18.45
2019-04-06T23:09:54.920Z,18.07
2019-04-06T23:12:26.303Z,20.12
2019-04-06T23:14:57.598Z,19.40
2019-04-06T23:17:28.850Z,19.25
2019-04-06T23:20:00.305Z,18.40
2019-04-06T23:22:31.770Z,20.45
2019-04-06T23:25:03.148Z,19.30
2019-04-06T23:27:37.710Z,19.50
2019-04-06T23:30:12.271Z,19.25
2019-04-06T23:32:43.733Z,20.68
2019-04-06T23:35:15.243Z,17.37
2019-04-06T23:37:47.092Z,19.62
2019-04-06T23:40:18.599Z,18.50
2019-04-06T23:42:49.926Z,19.12
2019-04-06T23:45:21.862Z,19.52
2019-04-06T23:47:53.770Z,21.10
2019-04-06T23:50:25.165Z,20.50
2019-04-06T23:52:56.512Z,19.07
2019-04-06T23:55:28.193Z,17.98
2019-04-06T23:57:59.578Z,20.37
